AUA854 LLBG-LOWW
Flight info
| Callsign | AUA854 |
|---|---|
| Flight time | 3h 18m |
| Altitude | 34000 |
| Route | SUVAS1E SUVAS N128 TEZAK L324 SAFTA DCT MAROS DCT EVENO DCT BENEM UN127 IMR/N0453F360 UN127 LMO DCT EVIVI L863 OKANA DCT PARAK DCT BALUX DCT TORNO DCT NATEX NATEX2W |
| Aircraft | A320/M-SDE3FGHIRWY/LB1 |
Departure
| Time | 2026-04-22 11:54 |
|---|---|
| Airport | Ben Gurion International Airport (LLBG) |
Arrival
| Time | 2026-04-22 15:13 |
|---|---|
| Airport | Vienna International Airport (LOWW) |
| Time | Latitude | Longitude | Altitude | Speed | Heading |
|---|---|---|---|---|---|
| 2026-04-22 11:18 | 32.00416 | 34.87610 | 120 ft | 0 kts | 238° |
| 2026-04-22 11:41 | 32.00419 | 34.87615 | 121 ft | 2 kts | 238° |
| 2026-04-22 11:42 | 32.00426 | 34.87629 | 117 ft | 2 kts | 238° |
| 2026-04-22 11:42 | 32.00434 | 34.87643 | 118 ft | 2 kts | 238° |
| 2026-04-22 11:42 | 32.00441 | 34.87657 | 117 ft | 2 kts | 238° |
| 2026-04-22 11:42 | 32.00449 | 34.87671 | 116 ft | 2 kts | 240° |
| 2026-04-22 11:43 | 32.00455 | 34.87684 | 117 ft | 2 kts | 232° |
| 2026-04-22 11:43 | 32.00462 | 34.87693 | 115 ft | 1 kts | 208° |
| 2026-04-22 11:43 | 32.00470 | 34.87698 | 117 ft | 2 kts | 187° |
| 2026-04-22 11:43 | 32.00482 | 34.87698 | 117 ft | 2 kts | 171° |
| 2026-04-22 11:44 | 32.00485 | 34.87698 | 118 ft | 2 kts | 166° |
| 2026-04-22 11:44 | 32.00473 | 34.87701 | 117 ft | 2 kts | 166° |
| 2026-04-22 11:44 | 32.00461 | 34.87705 | 116 ft | 2 kts | 166° |
| 2026-04-22 11:44 | 32.00450 | 34.87708 | 118 ft | 1 kts | 166° |
| 2026-04-22 11:45 | 32.00444 | 34.87710 | 118 ft | 1 kts | 166° |
| 2026-04-22 11:45 | 32.00439 | 34.87711 | 118 ft | 1 kts | 166° |
| 2026-04-22 11:45 | 32.00438 | 34.87711 | 119 ft | 0 kts | 166° |
| 2026-04-22 11:47 | 32.00436 | 34.87712 | 118 ft | 1 kts | 166° |
| 2026-04-22 11:48 | 32.00407 | 34.87727 | 116 ft | 9 kts | 141° |
| 2026-04-22 11:48 | 32.00406 | 34.87784 | 120 ft | 6 kts | 54° |
| 2026-04-22 11:48 | 32.00440 | 34.87813 | 120 ft | 8 kts | 32° |
| 2026-04-22 11:48 | 32.00520 | 34.87870 | 118 ft | 17 kts | 31° |
| 2026-04-22 11:49 | 32.00624 | 34.87943 | 119 ft | 18 kts | 31° |
| 2026-04-22 11:49 | 32.00733 | 34.88022 | 120 ft | 19 kts | 31° |
| 2026-04-22 11:49 | 32.00845 | 34.88105 | 118 ft | 19 kts | 31° |
| 2026-04-22 11:49 | 32.00963 | 34.88190 | 117 ft | 20 kts | 32° |
| 2026-04-22 11:50 | 32.01085 | 34.88278 | 120 ft | 21 kts | 32° |
| 2026-04-22 11:50 | 32.01210 | 34.88367 | 119 ft | 21 kts | 34° |
| 2026-04-22 11:50 | 32.01322 | 34.88470 | 115 ft | 20 kts | 43° |
| 2026-04-22 11:50 | 32.01412 | 34.88600 | 117 ft | 21 kts | 57° |
| 2026-04-22 11:51 | 32.01475 | 34.88756 | 116 ft | 21 kts | 70° |
| 2026-04-22 11:51 | 32.01508 | 34.88925 | 120 ft | 21 kts | 79° |
| 2026-04-22 11:51 | 32.01530 | 34.89057 | 120 ft | 8 kts | 79° |
| 2026-04-22 11:51 | 32.01539 | 34.89113 | 120 ft | 6 kts | 79° |
| 2026-04-22 11:52 | 32.01587 | 34.89162 | 118 ft | 12 kts | 7° |
| 2026-04-22 11:52 | 32.01670 | 34.89145 | 116 ft | 13 kts | 349° |
| 2026-04-22 11:52 | 32.01743 | 34.89111 | 119 ft | 10 kts | 295° |
| 2026-04-22 11:52 | 32.01742 | 34.89064 | 120 ft | 0 kts | 260° |
| 2026-04-22 11:53 | 32.01734 | 34.89014 | 117 ft | 28 kts | 260° |
| 2026-04-22 11:53 | 32.01650 | 34.88465 | 120 ft | 106 kts | 257° |
| 2026-04-22 11:53 | 32.01488 | 34.87354 | 132 ft | 164 kts | 265° |
| 2026-04-22 11:54 | 32.01310 | 34.86236 | 702 ft | 166 kts | 262° |
| 2026-04-22 11:54 | 32.01044 | 34.85072 | 1393 ft | 173 kts | 255° |
| 2026-04-22 11:54 | 32.00653 | 34.83698 | 2147 ft | 183 kts | 256° |
| 2026-04-22 11:54 | 32.00277 | 34.82204 | 2955 ft | 196 kts | 257° |
| 2026-04-22 11:55 | 31.99959 | 34.80589 | 3648 ft | 211 kts | 257° |
| 2026-04-22 11:55 | 31.99631 | 34.78831 | 4286 ft | 231 kts | 258° |
| 2026-04-22 11:55 | 31.99292 | 34.76922 | 4872 ft | 246 kts | 258° |
| 2026-04-22 11:55 | 31.99160 | 34.74889 | 5304 ft | 260 kts | 281° |
| 2026-04-22 11:56 | 31.99749 | 34.72826 | 5894 ft | 271 kts | 291° |
| 2026-04-22 11:56 | 32.00435 | 34.70744 | 6636 ft | 274 kts | 290° |
| 2026-04-22 11:56 | 32.01105 | 34.68638 | 7398 ft | 275 kts | 289° |
| 2026-04-22 11:56 | 32.01781 | 34.66475 | 7846 ft | 291 kts | 288° |
| 2026-04-22 11:57 | 32.02398 | 34.64141 | 8368 ft | 298 kts | 285° |
| 2026-04-22 11:57 | 32.02935 | 34.61856 | 9577 ft | 283 kts | 283° |
| 2026-04-22 11:57 | 32.03437 | 34.59621 | 10320 ft | 286 kts | 283° |
| 2026-04-22 11:57 | 32.03953 | 34.57283 | 10636 ft | 303 kts | 283° |
| 2026-04-22 11:58 | 32.04499 | 34.54819 | 10927 ft | 319 kts | 284° |
| 2026-04-22 11:58 | 32.05076 | 34.52226 | 11197 ft | 335 kts | 284° |
| 2026-04-22 11:58 | 32.05685 | 34.49502 | 11437 ft | 352 kts | 284° |
| 2026-04-22 11:58 | 32.06321 | 34.46667 | 11810 ft | 362 kts | 284° |
| 2026-04-22 11:59 | 32.06972 | 34.43783 | 12387 ft | 366 kts | 284° |
| 2026-04-22 11:59 | 32.07631 | 34.40876 | 13001 ft | 368 kts | 284° |
| 2026-04-22 11:59 | 32.08296 | 34.37947 | 13603 ft | 371 kts | 284° |
| 2026-04-22 11:59 | 32.08965 | 34.34992 | 14158 ft | 374 kts | 284° |
| 2026-04-22 12:00 | 32.09639 | 34.32012 | 14701 ft | 377 kts | 284° |
| 2026-04-22 12:00 | 32.10312 | 34.29023 | 15237 ft | 379 kts | 284° |
| 2026-04-22 12:00 | 32.10986 | 34.26008 | 15773 ft | 381 kts | 284° |
| 2026-04-22 12:00 | 32.11663 | 34.22968 | 16309 ft | 383 kts | 284° |
| 2026-04-22 12:01 | 32.12343 | 34.19914 | 16835 ft | 386 kts | 284° |
| 2026-04-22 12:01 | 32.13028 | 34.16842 | 17363 ft | 388 kts | 284° |
| 2026-04-22 12:01 | 32.13720 | 34.13747 | 17891 ft | 391 kts | 284° |
| 2026-04-22 12:01 | 32.14415 | 34.10636 | 18393 ft | 393 kts | 284° |
| 2026-04-22 12:02 | 32.15112 | 34.07503 | 18831 ft | 396 kts | 284° |
| 2026-04-22 12:02 | 32.15810 | 34.04357 | 19262 ft | 398 kts | 284° |
| 2026-04-22 12:02 | 32.16553 | 34.01205 | 19701 ft | 400 kts | 288° |
| 2026-04-22 12:02 | 32.17689 | 33.98203 | 20129 ft | 403 kts | 298° |
| 2026-04-22 12:03 | 32.19246 | 33.95434 | 20537 ft | 406 kts | 304° |
| 2026-04-22 12:03 | 32.20896 | 33.92718 | 20927 ft | 408 kts | 304° |
| 2026-04-22 12:03 | 32.22551 | 33.89986 | 21305 ft | 410 kts | 304° |
| 2026-04-22 12:03 | 32.24209 | 33.87234 | 21688 ft | 412 kts | 303° |
| 2026-04-22 12:04 | 32.25869 | 33.84463 | 22059 ft | 414 kts | 303° |
| 2026-04-22 12:04 | 32.27538 | 33.81679 | 22409 ft | 416 kts | 303° |
| 2026-04-22 12:04 | 32.29194 | 33.78923 | 22762 ft | 418 kts | 303° |
| 2026-04-22 12:04 | 32.30882 | 33.76116 | 23098 ft | 420 kts | 303° |
| 2026-04-22 12:05 | 32.32577 | 33.73295 | 23431 ft | 422 kts | 303° |
| 2026-04-22 12:05 | 32.34276 | 33.70459 | 23735 ft | 423 kts | 303° |
| 2026-04-22 12:05 | 32.35983 | 33.67606 | 24013 ft | 425 kts | 303° |
| 2026-04-22 12:05 | 32.37691 | 33.64751 | 24287 ft | 426 kts | 303° |
| 2026-04-22 12:06 | 32.39409 | 33.61881 | 24563 ft | 427 kts | 303° |
| 2026-04-22 12:06 | 32.41128 | 33.59009 | 24831 ft | 428 kts | 303° |
| 2026-04-22 12:06 | 32.42852 | 33.56129 | 25101 ft | 429 kts | 303° |
| 2026-04-22 12:06 | 32.44580 | 33.53241 | 25363 ft | 430 kts | 303° |
| 2026-04-22 12:07 | 32.46312 | 33.50341 | 25621 ft | 431 kts | 303° |
| 2026-04-22 12:07 | 32.48046 | 33.47434 | 25868 ft | 432 kts | 303° |
| 2026-04-22 12:07 | 32.49782 | 33.44517 | 26104 ft | 433 kts | 303° |
| 2026-04-22 12:07 | 32.51521 | 33.41591 | 26332 ft | 434 kts | 303° |
| 2026-04-22 12:08 | 32.53260 | 33.38661 | 26561 ft | 435 kts | 303° |
| 2026-04-22 12:08 | 32.55005 | 33.35719 | 26782 ft | 436 kts | 303° |
| 2026-04-22 12:08 | 32.56755 | 33.32773 | 26981 ft | 437 kts | 303° |
| 2026-04-22 12:08 | 32.58514 | 33.29815 | 27179 ft | 438 kts | 303° |
| 2026-04-22 12:09 | 32.60273 | 33.26858 | 27376 ft | 439 kts | 303° |
| 2026-04-22 12:09 | 32.62032 | 33.23888 | 27565 ft | 440 kts | 303° |
| 2026-04-22 12:09 | 32.63789 | 33.20914 | 27757 ft | 440 kts | 303° |
| 2026-04-22 12:09 | 32.65547 | 33.17942 | 28010 ft | 439 kts | 303° |
| 2026-04-22 12:10 | 32.67301 | 33.14981 | 28278 ft | 438 kts | 303° |
| 2026-04-22 12:10 | 32.69050 | 33.12025 | 28542 ft | 437 kts | 303° |
| 2026-04-22 12:10 | 32.70789 | 33.09076 | 28801 ft | 436 kts | 303° |
| 2026-04-22 12:10 | 32.72529 | 33.06123 | 29053 ft | 435 kts | 302° |
| 2026-04-22 12:11 | 32.74262 | 33.03180 | 29311 ft | 434 kts | 302° |
| 2026-04-22 12:11 | 32.75991 | 33.00243 | 29572 ft | 433 kts | 302° |
| 2026-04-22 12:11 | 32.77697 | 32.97347 | 29819 ft | 432 kts | 302° |
| 2026-04-22 12:11 | 32.79418 | 32.94423 | 30076 ft | 432 kts | 302° |
| 2026-04-22 12:12 | 32.81138 | 32.91501 | 30294 ft | 431 kts | 302° |
| 2026-04-22 12:12 | 32.82848 | 32.88582 | 30510 ft | 430 kts | 302° |
| 2026-04-22 12:12 | 32.84553 | 32.85663 | 30716 ft | 429 kts | 302° |
| 2026-04-22 12:12 | 32.86255 | 32.82749 | 30937 ft | 428 kts | 302° |
| 2026-04-22 12:13 | 32.87955 | 32.79846 | 31140 ft | 427 kts | 302° |
| 2026-04-22 12:13 | 32.89655 | 32.76946 | 31349 ft | 426 kts | 302° |
| 2026-04-22 12:13 | 32.91350 | 32.74054 | 31555 ft | 426 kts | 302° |
| 2026-04-22 12:13 | 32.93042 | 32.71162 | 31752 ft | 425 kts | 302° |
| 2026-04-22 12:14 | 32.94727 | 32.68274 | 31958 ft | 424 kts | 302° |
| 2026-04-22 12:14 | 32.96408 | 32.65387 | 32166 ft | 424 kts | 302° |
| 2026-04-22 12:14 | 32.98084 | 32.62506 | 32373 ft | 423 kts | 302° |
| 2026-04-22 12:14 | 32.99761 | 32.59626 | 32573 ft | 422 kts | 302° |
| 2026-04-22 12:15 | 33.01435 | 32.56753 | 32766 ft | 422 kts | 302° |
| 2026-04-22 12:15 | 33.03106 | 32.53883 | 32957 ft | 421 kts | 302° |
| 2026-04-22 12:15 | 33.04773 | 32.51014 | 33149 ft | 420 kts | 302° |
| 2026-04-22 12:15 | 33.06433 | 32.48150 | 33359 ft | 420 kts | 302° |
| 2026-04-22 12:16 | 33.08069 | 32.45329 | 33540 ft | 419 kts | 302° |
| 2026-04-22 12:16 | 33.09747 | 32.42432 | 33727 ft | 418 kts | 302° |
| 2026-04-22 12:16 | 33.11399 | 32.39582 | 33928 ft | 418 kts | 302° |
| 2026-04-22 12:16 | 33.13050 | 32.36730 | 34033 ft | 418 kts | 302° |
| 2026-04-22 12:17 | 33.16363 | 32.30998 | 34048 ft | 420 kts | 302° |
| 2026-04-22 12:17 | 33.19653 | 32.25295 | 34048 ft | 420 kts | 302° |
| 2026-04-22 12:18 | 33.22965 | 32.19557 | 34042 ft | 419 kts | 302° |
| 2026-04-22 12:18 | 33.26261 | 32.13817 | 34044 ft | 419 kts | 302° |
| 2026-04-22 12:19 | 33.29562 | 32.08067 | 34044 ft | 419 kts | 302° |
| 2026-04-22 12:19 | 33.32304 | 32.03298 | 34047 ft | 419 kts | 302° |
| 2026-04-22 12:20 | 33.35602 | 31.97546 | 34047 ft | 418 kts | 302° |
| 2026-04-22 12:20 | 33.38889 | 31.91799 | 34049 ft | 418 kts | 302° |
| 2026-04-22 12:21 | 33.42175 | 31.86058 | 34046 ft | 418 kts | 302° |
| 2026-04-22 12:21 | 33.45853 | 31.80672 | 34041 ft | 422 kts | 316° |
| 2026-04-22 12:22 | 33.50933 | 31.77032 | 34030 ft | 432 kts | 336° |
| 2026-04-22 12:22 | 33.56689 | 31.74915 | 34034 ft | 434 kts | 339° |
| 2026-04-22 12:23 | 33.62468 | 31.72819 | 34032 ft | 434 kts | 339° |
| 2026-04-22 12:23 | 33.68206 | 31.70732 | 34049 ft | 433 kts | 339° |
| 2026-04-22 12:24 | 33.73977 | 31.68635 | 34041 ft | 433 kts | 339° |
| 2026-04-22 12:24 | 33.79590 | 31.66142 | 34040 ft | 427 kts | 327° |
| 2026-04-22 12:25 | 33.84397 | 31.62051 | 34040 ft | 422 kts | 319° |
| 2026-04-22 12:25 | 33.89016 | 31.57691 | 34043 ft | 422 kts | 319° |
| 2026-04-22 12:26 | 33.93635 | 31.53333 | 34033 ft | 422 kts | 319° |
| 2026-04-22 12:26 | 33.98250 | 31.48975 | 34040 ft | 421 kts | 319° |
| 2026-04-22 12:27 | 34.02854 | 31.44604 | 34041 ft | 422 kts | 319° |
| 2026-04-22 12:27 | 34.07470 | 31.40231 | 34046 ft | 421 kts | 319° |
| 2026-04-22 12:28 | 34.12075 | 31.35847 | 34051 ft | 421 kts | 319° |
| 2026-04-22 12:28 | 34.16671 | 31.31466 | 34050 ft | 421 kts | 319° |
| 2026-04-22 12:29 | 34.21267 | 31.27092 | 34041 ft | 420 kts | 319° |
| 2026-04-22 12:29 | 34.25859 | 31.22718 | 34045 ft | 420 kts | 319° |
| 2026-04-22 12:30 | 34.32740 | 31.16142 | 34034 ft | 420 kts | 318° |
| 2026-04-22 12:31 | 34.37327 | 31.11755 | 34037 ft | 420 kts | 318° |
| 2026-04-22 12:31 | 34.41880 | 31.07390 | 34045 ft | 420 kts | 318° |
| 2026-04-22 12:32 | 34.46465 | 31.02982 | 34040 ft | 420 kts | 318° |
| 2026-04-22 12:32 | 34.53321 | 30.96380 | 34041 ft | 419 kts | 318° |
| 2026-04-22 12:33 | 34.57867 | 30.91998 | 34036 ft | 419 kts | 318° |
| 2026-04-22 12:33 | 34.62520 | 30.87723 | 34032 ft | 422 kts | 325° |
| 2026-04-22 12:34 | 34.67590 | 30.84108 | 34031 ft | 422 kts | 326° |
| 2026-04-22 12:34 | 34.72661 | 30.80488 | 34033 ft | 422 kts | 326° |
| 2026-04-22 12:35 | 34.77729 | 30.76867 | 34036 ft | 422 kts | 326° |
| 2026-04-22 12:35 | 34.82793 | 30.73230 | 34033 ft | 422 kts | 325° |
| 2026-04-22 12:36 | 34.87849 | 30.69591 | 34032 ft | 422 kts | 325° |
| 2026-04-22 12:36 | 34.92876 | 30.65980 | 34035 ft | 422 kts | 325° |
| 2026-04-22 12:37 | 34.97927 | 30.62344 | 34034 ft | 421 kts | 325° |
| 2026-04-22 12:37 | 35.02975 | 30.58703 | 34032 ft | 421 kts | 325° |
| 2026-04-22 12:38 | 35.08017 | 30.55061 | 34032 ft | 421 kts | 325° |
| 2026-04-22 12:38 | 35.13050 | 30.51413 | 34036 ft | 421 kts | 325° |
| 2026-04-22 12:39 | 35.20609 | 30.45939 | 34039 ft | 421 kts | 325° |
| 2026-04-22 12:40 | 35.25643 | 30.42281 | 34042 ft | 421 kts | 325° |
| 2026-04-22 12:40 | 35.30679 | 30.38624 | 34041 ft | 421 kts | 325° |
| 2026-04-22 12:41 | 35.35719 | 30.34958 | 34042 ft | 420 kts | 325° |
| 2026-04-22 12:41 | 35.40707 | 30.31316 | 34044 ft | 420 kts | 325° |
| 2026-04-22 12:42 | 35.45738 | 30.27650 | 34043 ft | 420 kts | 325° |
| 2026-04-22 12:42 | 35.50751 | 30.23977 | 34043 ft | 419 kts | 325° |
| 2026-04-22 12:43 | 35.55762 | 30.20299 | 34040 ft | 419 kts | 324° |
| 2026-04-22 12:43 | 35.60770 | 30.16626 | 34037 ft | 419 kts | 324° |
| 2026-04-22 12:44 | 35.65767 | 30.12951 | 34028 ft | 418 kts | 324° |
| 2026-04-22 12:44 | 35.70733 | 30.09303 | 34020 ft | 418 kts | 324° |
| 2026-04-22 12:45 | 35.75726 | 30.05627 | 34023 ft | 418 kts | 324° |
| 2026-04-22 12:45 | 35.80697 | 30.01913 | 34026 ft | 415 kts | 320° |
| 2026-04-22 12:46 | 35.84805 | 29.97053 | 34008 ft | 407 kts | 303° |
| 2026-04-22 12:46 | 35.87877 | 29.91211 | 34008 ft | 406 kts | 300° |
| 2026-04-22 12:47 | 35.90912 | 29.85332 | 34015 ft | 406 kts | 300° |
| 2026-04-22 12:47 | 35.93939 | 29.79450 | 34023 ft | 406 kts | 300° |
| 2026-04-22 12:48 | 35.96957 | 29.73569 | 34027 ft | 405 kts | 300° |
| 2026-04-22 12:48 | 35.99953 | 29.67725 | 34027 ft | 405 kts | 300° |
| 2026-04-22 12:49 | 36.02959 | 29.61850 | 34021 ft | 405 kts | 300° |
| 2026-04-22 12:49 | 36.05966 | 29.55966 | 34017 ft | 404 kts | 300° |
| 2026-04-22 12:50 | 36.08969 | 29.50085 | 34012 ft | 404 kts | 300° |
| 2026-04-22 12:50 | 36.11970 | 29.44200 | 34012 ft | 404 kts | 300° |
| 2026-04-22 12:51 | 36.14966 | 29.38317 | 34012 ft | 404 kts | 300° |
| 2026-04-22 12:51 | 36.18042 | 29.32499 | 34014 ft | 406 kts | 306° |
| 2026-04-22 12:52 | 36.22168 | 29.27666 | 34015 ft | 411 kts | 316° |
| 2026-04-22 12:52 | 36.26508 | 29.23131 | 34019 ft | 411 kts | 315° |
| 2026-04-22 12:53 | 36.30862 | 29.18541 | 34022 ft | 410 kts | 315° |
| 2026-04-22 12:53 | 36.35216 | 29.13948 | 34019 ft | 410 kts | 315° |
| 2026-04-22 12:54 | 36.39568 | 29.09365 | 34018 ft | 410 kts | 315° |
| 2026-04-22 12:54 | 36.43896 | 29.04806 | 34017 ft | 409 kts | 315° |
| 2026-04-22 12:55 | 36.47531 | 29.00967 | 34021 ft | 409 kts | 315° |
| 2026-04-22 12:55 | 36.52572 | 28.95636 | 34025 ft | 409 kts | 315° |
| 2026-04-22 12:56 | 36.56916 | 28.91041 | 34029 ft | 409 kts | 315° |
| 2026-04-22 12:56 | 36.61244 | 28.86441 | 34030 ft | 409 kts | 315° |
| 2026-04-22 12:57 | 36.65540 | 28.81863 | 34033 ft | 409 kts | 315° |
| 2026-04-22 12:57 | 36.69866 | 28.77261 | 34030 ft | 409 kts | 315° |
| 2026-04-22 12:58 | 36.74203 | 28.72670 | 34033 ft | 408 kts | 315° |
| 2026-04-22 12:58 | 36.78532 | 28.68085 | 34031 ft | 408 kts | 315° |
| 2026-04-22 12:59 | 36.82857 | 28.63490 | 34024 ft | 408 kts | 315° |
| 2026-04-22 12:59 | 36.87165 | 28.58897 | 34033 ft | 405 kts | 315° |
| 2026-04-22 13:00 | 36.91445 | 28.54332 | 34013 ft | 407 kts | 315° |
| 2026-04-22 13:00 | 36.95768 | 28.49721 | 34009 ft | 407 kts | 315° |
| 2026-04-22 13:01 | 37.00076 | 28.45120 | 34001 ft | 407 kts | 315° |
| 2026-04-22 13:01 | 37.04384 | 28.40508 | 34000 ft | 407 kts | 315° |
| 2026-04-22 13:02 | 37.08655 | 28.35920 | 33999 ft | 407 kts | 315° |
| 2026-04-22 13:02 | 37.12938 | 28.31294 | 33991 ft | 406 kts | 314° |
| 2026-04-22 13:03 | 37.17215 | 28.26657 | 33996 ft | 406 kts | 314° |
| 2026-04-22 13:03 | 37.20777 | 28.22807 | 33995 ft | 406 kts | 315° |
| 2026-04-22 13:04 | 37.25066 | 28.18182 | 33991 ft | 406 kts | 315° |
| 2026-04-22 13:04 | 37.29357 | 28.13559 | 33991 ft | 406 kts | 315° |
| 2026-04-22 13:05 | 37.33644 | 28.08919 | 33992 ft | 406 kts | 314° |
| 2026-04-22 13:05 | 37.37916 | 28.04288 | 33996 ft | 406 kts | 315° |
| 2026-04-22 13:06 | 37.42192 | 27.99648 | 33992 ft | 405 kts | 315° |
| 2026-04-22 13:06 | 37.46439 | 27.95033 | 33994 ft | 406 kts | 314° |
| 2026-04-22 13:07 | 37.50707 | 27.90379 | 33976 ft | 406 kts | 314° |
| 2026-04-22 13:07 | 37.54974 | 27.85721 | 33980 ft | 406 kts | 314° |
| 2026-04-22 13:08 | 37.59243 | 27.81059 | 33973 ft | 406 kts | 314° |
| 2026-04-22 13:08 | 37.63511 | 27.76393 | 33977 ft | 406 kts | 314° |
| 2026-04-22 13:09 | 37.67776 | 27.71730 | 33973 ft | 405 kts | 314° |
| 2026-04-22 13:09 | 37.72012 | 27.67082 | 33977 ft | 405 kts | 314° |
| 2026-04-22 13:10 | 37.76267 | 27.62405 | 33974 ft | 405 kts | 314° |
| 2026-04-22 13:10 | 37.80520 | 27.57724 | 33987 ft | 405 kts | 314° |
| 2026-04-22 13:11 | 37.84765 | 27.53036 | 33988 ft | 405 kts | 314° |
| 2026-04-22 13:11 | 37.89012 | 27.48342 | 33992 ft | 405 kts | 314° |
| 2026-04-22 13:12 | 37.93253 | 27.43652 | 33992 ft | 404 kts | 314° |
| 2026-04-22 13:12 | 37.97487 | 27.38959 | 33997 ft | 404 kts | 314° |
| 2026-04-22 13:13 | 38.01691 | 27.34288 | 33994 ft | 404 kts | 314° |
| 2026-04-22 13:13 | 38.05920 | 27.29600 | 33990 ft | 404 kts | 314° |
| 2026-04-22 13:14 | 38.10149 | 27.24907 | 33985 ft | 403 kts | 314° |
| 2026-04-22 13:14 | 38.14368 | 27.20192 | 33983 ft | 403 kts | 314° |
| 2026-04-22 13:15 | 38.18580 | 27.15491 | 33985 ft | 403 kts | 314° |
| 2026-04-22 13:15 | 38.22756 | 27.10814 | 33988 ft | 402 kts | 314° |
| 2026-04-22 13:16 | 38.26953 | 27.06097 | 33987 ft | 402 kts | 314° |
| 2026-04-22 13:16 | 38.31149 | 27.01380 | 33984 ft | 402 kts | 314° |
| 2026-04-22 13:17 | 38.35362 | 26.96693 | 33976 ft | 402 kts | 315° |
| 2026-04-22 13:17 | 38.39610 | 26.92034 | 33969 ft | 403 kts | 314° |
| 2026-04-22 13:18 | 38.43856 | 26.87364 | 33964 ft | 403 kts | 314° |
| 2026-04-22 13:18 | 38.48084 | 26.82674 | 33959 ft | 403 kts | 314° |
| 2026-04-22 13:19 | 38.52318 | 26.77973 | 33953 ft | 403 kts | 314° |
| 2026-04-22 13:19 | 38.56522 | 26.73311 | 33953 ft | 402 kts | 314° |
| 2026-04-22 13:20 | 38.60747 | 26.68609 | 33954 ft | 402 kts | 314° |
| 2026-04-22 13:20 | 38.64977 | 26.63896 | 33957 ft | 402 kts | 314° |
| 2026-04-22 13:21 | 38.69193 | 26.59185 | 33957 ft | 402 kts | 314° |
| 2026-04-22 13:21 | 38.73405 | 26.54473 | 33965 ft | 402 kts | 314° |
| 2026-04-22 13:22 | 38.77615 | 26.49762 | 33972 ft | 402 kts | 314° |
| 2026-04-22 13:22 | 38.81817 | 26.45036 | 33971 ft | 402 kts | 313° |
| 2026-04-22 13:23 | 38.86053 | 26.40340 | 33976 ft | 403 kts | 315° |
| 2026-04-22 13:23 | 38.90366 | 26.35808 | 33982 ft | 403 kts | 315° |
| 2026-04-22 13:24 | 38.94750 | 26.31231 | 33972 ft | 403 kts | 315° |
| 2026-04-22 13:24 | 38.99052 | 26.26676 | 33979 ft | 403 kts | 315° |
| 2026-04-22 13:25 | 39.03361 | 26.22067 | 33982 ft | 403 kts | 314° |
| 2026-04-22 13:25 | 39.07672 | 26.17458 | 33982 ft | 403 kts | 314° |
| 2026-04-22 13:26 | 39.11986 | 26.12854 | 33985 ft | 403 kts | 314° |
| 2026-04-22 13:26 | 39.16363 | 26.08316 | 33986 ft | 404 kts | 316° |
| 2026-04-22 13:27 | 39.20875 | 26.03978 | 33987 ft | 405 kts | 317° |
| 2026-04-22 13:27 | 39.25406 | 25.99664 | 33987 ft | 405 kts | 317° |
| 2026-04-22 13:28 | 39.29919 | 25.95296 | 33995 ft | 404 kts | 316° |
| 2026-04-22 13:28 | 39.34403 | 25.90915 | 34002 ft | 404 kts | 316° |
| 2026-04-22 13:29 | 39.38879 | 25.86539 | 34010 ft | 403 kts | 316° |
| 2026-04-22 13:29 | 39.43343 | 25.82159 | 34007 ft | 403 kts | 316° |
| 2026-04-22 13:30 | 39.47791 | 25.77796 | 34011 ft | 403 kts | 316° |
| 2026-04-22 13:30 | 39.52255 | 25.73419 | 34022 ft | 402 kts | 316° |
| 2026-04-22 13:31 | 39.56710 | 25.69041 | 34023 ft | 402 kts | 316° |
| 2026-04-22 13:31 | 39.61166 | 25.64657 | 34027 ft | 401 kts | 316° |
| 2026-04-22 13:32 | 39.65622 | 25.60270 | 34023 ft | 401 kts | 316° |
| 2026-04-22 13:32 | 39.70064 | 25.55874 | 34027 ft | 401 kts | 316° |
| 2026-04-22 13:33 | 39.74506 | 25.51465 | 34022 ft | 401 kts | 316° |
| 2026-04-22 13:33 | 39.78916 | 25.47093 | 34016 ft | 401 kts | 316° |
| 2026-04-22 13:34 | 39.83365 | 25.42684 | 34015 ft | 401 kts | 316° |
| 2026-04-22 13:34 | 39.87808 | 25.38272 | 34017 ft | 401 kts | 316° |
| 2026-04-22 13:35 | 39.92242 | 25.33851 | 34018 ft | 401 kts | 315° |
| 2026-04-22 13:35 | 39.96662 | 25.29427 | 34018 ft | 400 kts | 315° |
| 2026-04-22 13:36 | 40.01082 | 25.25007 | 34026 ft | 400 kts | 315° |
| 2026-04-22 13:36 | 40.05503 | 25.20586 | 34035 ft | 400 kts | 315° |
| 2026-04-22 13:37 | 40.09913 | 25.16167 | 34042 ft | 400 kts | 315° |
| 2026-04-22 13:37 | 40.14297 | 25.11759 | 34047 ft | 399 kts | 315° |
| 2026-04-22 13:38 | 40.18695 | 25.07322 | 34043 ft | 399 kts | 315° |
| 2026-04-22 13:38 | 40.25290 | 25.00669 | 34058 ft | 399 kts | 315° |
| 2026-04-22 13:39 | 40.29689 | 24.96225 | 34053 ft | 399 kts | 315° |
| 2026-04-22 13:39 | 40.34090 | 24.91774 | 34066 ft | 399 kts | 315° |
| 2026-04-22 13:40 | 40.38456 | 24.87346 | 34071 ft | 398 kts | 315° |
| 2026-04-22 13:40 | 40.42836 | 24.82898 | 34067 ft | 398 kts | 315° |
| 2026-04-22 13:41 | 40.47216 | 24.78446 | 34073 ft | 397 kts | 315° |
| 2026-04-22 13:41 | 40.51584 | 24.73997 | 34075 ft | 396 kts | 315° |
| 2026-04-22 13:42 | 40.55932 | 24.69550 | 34072 ft | 396 kts | 315° |
| 2026-04-22 13:42 | 40.60280 | 24.65106 | 34076 ft | 395 kts | 315° |
| 2026-04-22 13:43 | 40.64613 | 24.60665 | 34078 ft | 394 kts | 314° |
| 2026-04-22 13:43 | 40.68931 | 24.56229 | 34070 ft | 393 kts | 314° |
| 2026-04-22 13:44 | 40.73217 | 24.51823 | 34067 ft | 392 kts | 314° |
| 2026-04-22 13:44 | 40.77511 | 24.47403 | 34057 ft | 391 kts | 314° |
| 2026-04-22 13:45 | 40.81793 | 24.42985 | 34057 ft | 390 kts | 314° |
| 2026-04-22 13:45 | 40.86077 | 24.38563 | 34049 ft | 390 kts | 314° |
| 2026-04-22 13:46 | 40.90355 | 24.34132 | 34052 ft | 390 kts | 314° |
| 2026-04-22 13:46 | 40.93913 | 24.30444 | 34054 ft | 390 kts | 314° |
| 2026-04-22 13:47 | 40.98884 | 24.25296 | 34053 ft | 390 kts | 314° |
| 2026-04-22 13:47 | 41.03151 | 24.20856 | 34053 ft | 390 kts | 314° |
| 2026-04-22 13:48 | 41.06727 | 24.17129 | 34054 ft | 390 kts | 314° |
| 2026-04-22 13:48 | 41.10991 | 24.12680 | 34049 ft | 390 kts | 314° |
| 2026-04-22 13:49 | 41.15249 | 24.08223 | 34051 ft | 390 kts | 313° |
| 2026-04-22 13:49 | 41.19511 | 24.03758 | 34055 ft | 390 kts | 314° |
| 2026-04-22 13:50 | 41.23764 | 23.99296 | 34029 ft | 394 kts | 314° |
| 2026-04-22 13:50 | 41.28044 | 23.94802 | 34036 ft | 394 kts | 314° |
| 2026-04-22 13:51 | 41.32324 | 23.90300 | 34053 ft | 391 kts | 313° |
| 2026-04-22 13:51 | 41.36553 | 23.85842 | 34045 ft | 390 kts | 313° |
| 2026-04-22 13:52 | 41.40849 | 23.81301 | 34041 ft | 392 kts | 314° |
| 2026-04-22 13:52 | 41.45133 | 23.76779 | 34033 ft | 392 kts | 313° |
| 2026-04-22 13:53 | 41.49410 | 23.72254 | 34031 ft | 393 kts | 313° |
| 2026-04-22 13:53 | 41.53690 | 23.67707 | 34026 ft | 394 kts | 313° |
| 2026-04-22 13:54 | 41.57980 | 23.63138 | 34014 ft | 395 kts | 313° |
| 2026-04-22 13:54 | 41.62257 | 23.58580 | 34022 ft | 396 kts | 313° |
| 2026-04-22 13:55 | 41.66564 | 23.53985 | 34019 ft | 396 kts | 313° |
| 2026-04-22 13:55 | 41.70886 | 23.49368 | 34013 ft | 398 kts | 313° |
| 2026-04-22 13:56 | 41.75227 | 23.44716 | 33999 ft | 400 kts | 313° |
| 2026-04-22 13:56 | 41.79589 | 23.40038 | 33999 ft | 402 kts | 314° |
| 2026-04-22 13:57 | 41.83967 | 23.35334 | 33998 ft | 404 kts | 314° |
| 2026-04-22 13:57 | 41.88341 | 23.30620 | 34001 ft | 406 kts | 314° |
| 2026-04-22 13:58 | 41.92763 | 23.25850 | 34003 ft | 409 kts | 315° |
| 2026-04-22 13:58 | 41.97206 | 23.21044 | 34002 ft | 410 kts | 315° |
| 2026-04-22 13:59 | 42.01656 | 23.16224 | 34016 ft | 410 kts | 315° |
| 2026-04-22 13:59 | 42.06068 | 23.11443 | 34019 ft | 409 kts | 315° |
| 2026-04-22 14:00 | 42.10500 | 23.06641 | 34028 ft | 408 kts | 315° |
| 2026-04-22 14:00 | 42.14910 | 23.01836 | 34041 ft | 407 kts | 315° |
| 2026-04-22 14:01 | 42.19297 | 22.97046 | 34041 ft | 405 kts | 315° |
| 2026-04-22 14:01 | 42.23668 | 22.92268 | 34038 ft | 404 kts | 315° |
| 2026-04-22 14:02 | 42.28126 | 22.87657 | 34029 ft | 408 kts | 323° |
| 2026-04-22 14:02 | 42.33237 | 22.84139 | 34026 ft | 413 kts | 327° |
| 2026-04-22 14:03 | 42.36905 | 22.81677 | 34023 ft | 414 kts | 327° |
| 2026-04-22 14:03 | 42.42074 | 22.78204 | 34020 ft | 415 kts | 327° |
| 2026-04-22 14:04 | 42.47225 | 22.74733 | 34020 ft | 416 kts | 327° |
| 2026-04-22 14:04 | 42.52419 | 22.71226 | 34018 ft | 417 kts | 327° |
| 2026-04-22 14:05 | 42.57616 | 22.67697 | 34019 ft | 418 kts | 327° |
| 2026-04-22 14:06 | 42.65444 | 22.62390 | 34027 ft | 420 kts | 327° |
| 2026-04-22 14:06 | 42.70670 | 22.58835 | 34034 ft | 420 kts | 327° |
| 2026-04-22 14:07 | 42.75584 | 22.55498 | 34038 ft | 420 kts | 327° |
| 2026-04-22 14:07 | 42.80828 | 22.51914 | 34037 ft | 422 kts | 327° |
| 2026-04-22 14:08 | 42.86073 | 22.48321 | 34045 ft | 423 kts | 328° |
| 2026-04-22 14:08 | 42.91319 | 22.44760 | 34052 ft | 424 kts | 328° |
| 2026-04-22 14:09 | 42.96600 | 22.41170 | 34050 ft | 424 kts | 328° |
| 2026-04-22 14:09 | 43.01886 | 22.37567 | 34042 ft | 425 kts | 328° |
| 2026-04-22 14:10 | 43.07188 | 22.33944 | 34040 ft | 425 kts | 328° |
| 2026-04-22 14:10 | 43.12464 | 22.30337 | 34039 ft | 426 kts | 328° |
| 2026-04-22 14:11 | 43.17772 | 22.26687 | 34040 ft | 427 kts | 328° |
| 2026-04-22 14:11 | 43.23089 | 22.23025 | 34047 ft | 427 kts | 328° |
| 2026-04-22 14:12 | 43.28413 | 22.19368 | 34050 ft | 428 kts | 328° |
| 2026-04-22 14:12 | 43.33750 | 22.15691 | 34050 ft | 428 kts | 328° |
| 2026-04-22 14:13 | 43.39077 | 22.12006 | 34047 ft | 429 kts | 328° |
| 2026-04-22 14:13 | 43.44407 | 22.08311 | 34032 ft | 429 kts | 328° |
| 2026-04-22 14:14 | 43.49743 | 22.04598 | 34048 ft | 430 kts | 328° |
| 2026-04-22 14:14 | 43.55056 | 22.00898 | 34040 ft | 430 kts | 329° |
| 2026-04-22 14:15 | 43.60398 | 21.97179 | 34041 ft | 430 kts | 329° |
| 2026-04-22 14:15 | 43.65752 | 21.93442 | 34044 ft | 431 kts | 329° |
| 2026-04-22 14:16 | 43.71109 | 21.89698 | 34047 ft | 431 kts | 329° |
| 2026-04-22 14:16 | 43.76475 | 21.85945 | 34053 ft | 432 kts | 329° |
| 2026-04-22 14:17 | 43.81847 | 21.82178 | 34052 ft | 432 kts | 329° |
| 2026-04-22 14:17 | 43.87208 | 21.78389 | 34052 ft | 433 kts | 329° |
| 2026-04-22 14:18 | 43.92552 | 21.74616 | 34056 ft | 433 kts | 329° |
| 2026-04-22 14:18 | 43.97931 | 21.70814 | 34064 ft | 433 kts | 329° |
| 2026-04-22 14:19 | 44.03306 | 21.67010 | 34062 ft | 434 kts | 329° |
| 2026-04-22 14:19 | 44.08688 | 21.63188 | 34063 ft | 434 kts | 329° |
| 2026-04-22 14:20 | 44.16764 | 21.57434 | 34068 ft | 435 kts | 329° |
| 2026-04-22 14:20 | 44.22160 | 21.53584 | 34070 ft | 435 kts | 330° |
| 2026-04-22 14:21 | 44.30216 | 21.47829 | 34072 ft | 436 kts | 330° |
| 2026-04-22 14:22 | 44.38310 | 21.42033 | 34072 ft | 436 kts | 330° |
| 2026-04-22 14:23 | 44.46417 | 21.36187 | 34078 ft | 437 kts | 330° |
| 2026-04-22 14:23 | 44.51821 | 21.32277 | 34078 ft | 437 kts | 330° |
| 2026-04-22 14:24 | 44.57223 | 21.28375 | 34086 ft | 437 kts | 330° |
| 2026-04-22 14:24 | 44.62598 | 21.24487 | 34084 ft | 437 kts | 330° |
| 2026-04-22 14:25 | 44.68013 | 21.20564 | 34089 ft | 437 kts | 330° |
| 2026-04-22 14:25 | 44.73415 | 21.16632 | 34091 ft | 437 kts | 330° |
| 2026-04-22 14:26 | 44.78817 | 21.12686 | 34095 ft | 437 kts | 330° |
| 2026-04-22 14:26 | 44.84193 | 21.08745 | 34097 ft | 438 kts | 330° |
| 2026-04-22 14:27 | 44.89596 | 21.04791 | 34103 ft | 438 kts | 331° |
| 2026-04-22 14:27 | 44.95010 | 21.00823 | 34102 ft | 438 kts | 331° |
| 2026-04-22 14:28 | 45.00423 | 20.96843 | 34099 ft | 438 kts | 331° |
| 2026-04-22 14:28 | 45.05835 | 20.92849 | 34101 ft | 439 kts | 331° |
| 2026-04-22 14:29 | 45.11208 | 20.88867 | 34108 ft | 439 kts | 331° |
| 2026-04-22 14:29 | 45.16615 | 20.84862 | 34112 ft | 439 kts | 331° |
| 2026-04-22 14:30 | 45.22032 | 20.80856 | 34113 ft | 439 kts | 331° |
| 2026-04-22 14:30 | 45.27453 | 20.76831 | 34115 ft | 439 kts | 331° |
| 2026-04-22 14:31 | 45.32871 | 20.72787 | 34110 ft | 439 kts | 331° |
| 2026-04-22 14:31 | 45.37366 | 20.69425 | 34118 ft | 439 kts | 331° |
| 2026-04-22 14:32 | 45.42778 | 20.65372 | 34121 ft | 439 kts | 332° |
| 2026-04-22 14:32 | 45.48190 | 20.61320 | 34115 ft | 439 kts | 332° |
| 2026-04-22 14:33 | 45.53607 | 20.57264 | 34123 ft | 439 kts | 332° |
| 2026-04-22 14:33 | 45.58984 | 20.53220 | 34125 ft | 439 kts | 332° |
| 2026-04-22 14:34 | 45.64401 | 20.49131 | 34126 ft | 439 kts | 332° |
| 2026-04-22 14:34 | 45.69807 | 20.45033 | 34124 ft | 439 kts | 332° |
| 2026-04-22 14:35 | 45.75205 | 20.40943 | 34124 ft | 439 kts | 332° |
| 2026-04-22 14:35 | 45.80589 | 20.36856 | 34124 ft | 439 kts | 332° |
| 2026-04-22 14:36 | 45.85988 | 20.32744 | 34126 ft | 439 kts | 332° |
| 2026-04-22 14:36 | 45.91374 | 20.28632 | 34123 ft | 439 kts | 332° |
| 2026-04-22 14:37 | 45.96787 | 20.24485 | 34131 ft | 439 kts | 332° |
| 2026-04-22 14:37 | 46.02148 | 20.20367 | 34130 ft | 439 kts | 332° |
| 2026-04-22 14:38 | 46.07544 | 20.16216 | 34125 ft | 439 kts | 332° |
| 2026-04-22 14:38 | 46.12948 | 20.12071 | 34132 ft | 439 kts | 332° |
| 2026-04-22 14:39 | 46.18347 | 20.07903 | 34131 ft | 439 kts | 332° |
| 2026-04-22 14:39 | 46.23663 | 20.03649 | 34137 ft | 439 kts | 331° |
| 2026-04-22 14:40 | 46.31669 | 19.97156 | 34131 ft | 440 kts | 331° |
| 2026-04-22 14:40 | 46.37010 | 19.92848 | 34134 ft | 439 kts | 332° |
| 2026-04-22 14:41 | 46.42362 | 19.88540 | 34131 ft | 440 kts | 332° |
| 2026-04-22 14:41 | 46.47713 | 19.84218 | 34129 ft | 440 kts | 332° |
| 2026-04-22 14:42 | 46.53051 | 19.79893 | 34124 ft | 440 kts | 332° |
| 2026-04-22 14:42 | 46.58404 | 19.75543 | 34125 ft | 440 kts | 332° |
| 2026-04-22 14:43 | 46.63716 | 19.71219 | 34126 ft | 440 kts | 332° |
| 2026-04-22 14:43 | 46.69048 | 19.66855 | 34135 ft | 440 kts | 332° |
| 2026-04-22 14:44 | 46.74402 | 19.62470 | 34134 ft | 440 kts | 332° |
| 2026-04-22 14:44 | 46.79747 | 19.58083 | 34137 ft | 441 kts | 332° |
| 2026-04-22 14:45 | 46.85098 | 19.53690 | 34134 ft | 441 kts | 332° |
| 2026-04-22 14:45 | 46.90418 | 19.49327 | 34139 ft | 441 kts | 332° |
| 2026-04-22 14:46 | 46.95770 | 19.44908 | 34140 ft | 441 kts | 332° |
| 2026-04-22 14:46 | 47.01105 | 19.40477 | 34136 ft | 441 kts | 332° |
| 2026-04-22 14:47 | 47.06445 | 19.36051 | 34133 ft | 441 kts | 332° |
| 2026-04-22 14:47 | 47.11784 | 19.31611 | 34129 ft | 441 kts | 332° |
| 2026-04-22 14:48 | 47.17116 | 19.27159 | 34137 ft | 441 kts | 332° |
| 2026-04-22 14:48 | 47.22454 | 19.22703 | 34141 ft | 441 kts | 332° |
| 2026-04-22 14:49 | 47.27746 | 19.18274 | 34138 ft | 440 kts | 332° |
| 2026-04-22 14:49 | 47.32728 | 19.13097 | 34132 ft | 444 kts | 317° |
| 2026-04-22 14:50 | 47.36363 | 19.05667 | 34118 ft | 450 kts | 298° |
| 2026-04-22 14:50 | 47.39009 | 18.97255 | 34117 ft | 451 kts | 297° |
| 2026-04-22 14:51 | 47.41644 | 18.88831 | 34121 ft | 452 kts | 297° |
| 2026-04-22 14:51 | 47.44276 | 18.80408 | 34124 ft | 452 kts | 297° |
| 2026-04-22 14:52 | 47.46899 | 18.71951 | 34128 ft | 452 kts | 297° |
| 2026-04-22 14:52 | 47.49499 | 18.63543 | 34135 ft | 453 kts | 297° |
| 2026-04-22 14:53 | 47.52114 | 18.55065 | 33649 ft | 451 kts | 297° |
| 2026-04-22 14:53 | 47.53420 | 18.50814 | 32473 ft | 454 kts | 296° |
| 2026-04-22 14:53 | 47.54529 | 18.46473 | 31520 ft | 448 kts | 290° |
| 2026-04-22 14:54 | 47.55460 | 18.42107 | 30502 ft | 442 kts | 290° |
| 2026-04-22 14:54 | 47.56385 | 18.37756 | 29280 ft | 446 kts | 290° |
| 2026-04-22 14:54 | 47.57321 | 18.33362 | 28199 ft | 448 kts | 290° |
| 2026-04-22 14:54 | 47.58250 | 18.28986 | 26983 ft | 452 kts | 290° |
| 2026-04-22 14:55 | 47.59199 | 18.24520 | 25783 ft | 457 kts | 290° |
| 2026-04-22 14:55 | 47.60147 | 18.20046 | 25072 ft | 451 kts | 290° |
| 2026-04-22 14:55 | 47.61080 | 18.15623 | 24278 ft | 448 kts | 290° |
| 2026-04-22 14:55 | 47.62003 | 18.11234 | 23438 ft | 445 kts | 290° |
| 2026-04-22 14:56 | 47.62922 | 18.06865 | 22656 ft | 441 kts | 290° |
| 2026-04-22 14:56 | 47.63826 | 18.02547 | 21929 ft | 436 kts | 290° |
| 2026-04-22 14:56 | 47.64715 | 17.98281 | 21232 ft | 431 kts | 290° |
| 2026-04-22 14:56 | 47.65596 | 17.94047 | 20557 ft | 427 kts | 290° |
| 2026-04-22 14:57 | 47.66466 | 17.89868 | 19875 ft | 423 kts | 290° |
| 2026-04-22 14:57 | 47.67322 | 17.85762 | 19235 ft | 419 kts | 290° |
| 2026-04-22 14:57 | 47.68177 | 17.81650 | 18617 ft | 415 kts | 290° |
| 2026-04-22 14:57 | 47.69023 | 17.77566 | 17951 ft | 412 kts | 290° |
| 2026-04-22 14:58 | 47.69860 | 17.73519 | 17386 ft | 406 kts | 290° |
| 2026-04-22 14:58 | 47.70683 | 17.69539 | 16826 ft | 401 kts | 290° |
| 2026-04-22 14:58 | 47.71496 | 17.65599 | 16299 ft | 396 kts | 290° |
| 2026-04-22 14:58 | 47.72295 | 17.61717 | 15774 ft | 391 kts | 290° |
| 2026-04-22 14:59 | 47.73085 | 17.57865 | 15251 ft | 387 kts | 290° |
| 2026-04-22 14:59 | 47.73859 | 17.54058 | 14726 ft | 383 kts | 288° |
| 2026-04-22 14:59 | 47.74365 | 17.50176 | 14193 ft | 383 kts | 278° |
| 2026-04-22 14:59 | 47.74427 | 17.46161 | 13258 ft | 396 kts | 268° |
| 2026-04-22 15:00 | 47.74144 | 17.42097 | 12286 ft | 401 kts | 266° |
| 2026-04-22 15:00 | 47.73846 | 17.37981 | 11344 ft | 397 kts | 266° |
| 2026-04-22 15:00 | 47.73559 | 17.33983 | 10691 ft | 375 kts | 266° |
| 2026-04-22 15:00 | 47.73290 | 17.30279 | 10441 ft | 346 kts | 266° |
| 2026-04-22 15:01 | 47.73040 | 17.26818 | 10320 ft | 330 kts | 266° |
| 2026-04-22 15:01 | 47.72802 | 17.23496 | 10197 ft | 317 kts | 267° |
| 2026-04-22 15:01 | 47.72572 | 17.20305 | 10068 ft | 305 kts | 267° |
| 2026-04-22 15:01 | 47.72348 | 17.17230 | 9922 ft | 293 kts | 267° |
| 2026-04-22 15:02 | 47.72134 | 17.14270 | 9793 ft | 283 kts | 267° |
| 2026-04-22 15:02 | 47.71925 | 17.11368 | 9653 ft | 289 kts | 267° |
| 2026-04-22 15:02 | 47.71778 | 17.08395 | 9489 ft | 288 kts | 275° |
| 2026-04-22 15:02 | 47.72089 | 17.05506 | 9145 ft | 280 kts | 291° |
| 2026-04-22 15:03 | 47.72881 | 17.02895 | 8682 ft | 276 kts | 306° |
| 2026-04-22 15:03 | 47.74042 | 17.00648 | 8251 ft | 272 kts | 313° |
| 2026-04-22 15:03 | 47.75232 | 16.98477 | 7876 ft | 269 kts | 312° |
| 2026-04-22 15:03 | 47.76397 | 16.96325 | 7525 ft | 265 kts | 311° |
| 2026-04-22 15:04 | 47.77542 | 16.94202 | 7171 ft | 262 kts | 311° |
| 2026-04-22 15:04 | 47.78674 | 16.92101 | 6823 ft | 259 kts | 311° |
| 2026-04-22 15:04 | 47.79798 | 16.90013 | 6471 ft | 257 kts | 311° |
| 2026-04-22 15:04 | 47.80913 | 16.87942 | 6115 ft | 256 kts | 311° |
| 2026-04-22 15:05 | 47.82027 | 16.85881 | 5776 ft | 255 kts | 311° |
| 2026-04-22 15:05 | 47.83140 | 16.83826 | 5436 ft | 254 kts | 311° |
| 2026-04-22 15:05 | 47.84247 | 16.81783 | 5100 ft | 253 kts | 311° |
| 2026-04-22 15:05 | 47.85343 | 16.79757 | 4752 ft | 251 kts | 311° |
| 2026-04-22 15:06 | 47.86067 | 16.78417 | 4532 ft | 250 kts | 311° |
| 2026-04-22 15:06 | 47.87485 | 16.75782 | 4297 ft | 236 kts | 311° |
| 2026-04-22 15:06 | 47.88447 | 16.73981 | 4302 ft | 208 kts | 311° |
| 2026-04-22 15:06 | 47.89310 | 16.72363 | 4309 ft | 192 kts | 312° |
| 2026-04-22 15:07 | 47.90115 | 16.70860 | 4305 ft | 178 kts | 312° |
| 2026-04-22 15:07 | 47.90868 | 16.69456 | 4144 ft | 173 kts | 312° |
| 2026-04-22 15:07 | 47.91618 | 16.68062 | 3926 ft | 170 kts | 313° |
| 2026-04-22 15:07 | 47.92354 | 16.66735 | 3812 ft | 160 kts | 321° |
| 2026-04-22 15:08 | 47.93217 | 16.65900 | 3755 ft | 134 kts | 350° |
| 2026-04-22 15:08 | 47.94131 | 16.65565 | 3783 ft | 155 kts | 343° |
| 2026-04-22 15:08 | 47.95133 | 16.65081 | 4015 ft | 135 kts | 342° |
| 2026-04-22 15:08 | 47.95991 | 16.64642 | 3699 ft | 130 kts | 343° |
| 2026-04-22 15:09 | 47.96881 | 16.64226 | 3255 ft | 134 kts | 344° |
| 2026-04-22 15:09 | 47.97776 | 16.63828 | 2985 ft | 134 kts | 345° |
| 2026-04-22 15:09 | 47.98675 | 16.63439 | 2761 ft | 135 kts | 344° |
| 2026-04-22 15:09 | 47.99572 | 16.63056 | 2554 ft | 135 kts | 346° |
| 2026-04-22 15:10 | 48.00475 | 16.62673 | 2373 ft | 135 kts | 346° |
| 2026-04-22 15:10 | 48.01372 | 16.62294 | 2185 ft | 134 kts | 346° |
| 2026-04-22 15:10 | 48.02266 | 16.61917 | 1998 ft | 133 kts | 345° |
| 2026-04-22 15:10 | 48.03144 | 16.61547 | 1817 ft | 131 kts | 345° |
| 2026-04-22 15:11 | 48.04025 | 16.61174 | 1649 ft | 133 kts | 345° |
| 2026-04-22 15:11 | 48.04906 | 16.60814 | 1466 ft | 131 kts | 345° |
| 2026-04-22 15:11 | 48.05778 | 16.60451 | 1338 ft | 129 kts | 343° |
| 2026-04-22 15:11 | 48.06636 | 16.60070 | 1139 ft | 128 kts | 344° |
| 2026-04-22 15:12 | 48.07497 | 16.59718 | 916 ft | 128 kts | 345° |
| 2026-04-22 15:12 | 48.08360 | 16.59338 | 754 ft | 130 kts | 346° |
| 2026-04-22 15:12 | 48.09216 | 16.58979 | 625 ft | 121 kts | 347° |
| 2026-04-22 15:12 | 48.09902 | 16.58694 | 619 ft | 78 kts | 344° |
| 2026-04-22 15:13 | 48.10267 | 16.58541 | 619 ft | 36 kts | 343° |
| 2026-04-22 15:13 | 48.10469 | 16.58454 | 613 ft | 29 kts | 344° |
| 2026-04-22 15:13 | 48.10647 | 16.58361 | 612 ft | 26 kts | 330° |
| 2026-04-22 15:13 | 48.10781 | 16.58204 | 612 ft | 24 kts | 311° |
| 2026-04-22 15:14 | 48.10894 | 16.58029 | 613 ft | 22 kts | 314° |
| 2026-04-22 15:14 | 48.10975 | 16.57906 | 615 ft | 16 kts | 315° |
| 2026-04-22 15:14 | 48.11062 | 16.57789 | 613 ft | 17 kts | 338° |
| 2026-04-22 15:14 | 48.11162 | 16.57705 | 616 ft | 17 kts | 294° |
| 2026-04-22 15:15 | 48.11210 | 16.57552 | 611 ft | 17 kts | 296° |
| 2026-04-22 15:15 | 48.11264 | 16.57386 | 619 ft | 19 kts | 296° |
| 2026-04-22 15:15 | 48.11324 | 16.57205 | 622 ft | 20 kts | 296° |
| 2026-04-22 15:15 | 48.11380 | 16.57032 | 622 ft | 21 kts | 297° |
| 2026-04-22 15:16 | 48.11447 | 16.56828 | 619 ft | 20 kts | 296° |
| 2026-04-22 15:16 | 48.11510 | 16.56630 | 617 ft | 22 kts | 295° |
| 2026-04-22 15:16 | 48.11581 | 16.56416 | 615 ft | 24 kts | 296° |
| 2026-04-22 15:16 | 48.11618 | 16.56302 | 617 ft | 12 kts | 296° |
| 2026-04-22 15:17 | 48.11685 | 16.56232 | 619 ft | 13 kts | 343° |
| 2026-04-22 15:17 | 48.11772 | 16.56193 | 618 ft | 8 kts | 343° |
| 2026-04-22 15:17 | 48.11782 | 16.56189 | 617 ft | 0 kts | 343° |